Time;durP1;ratioP1;P1;durP2;ratioP2;P2;SDS_P1;SDS_P2;PMS_P1;PMS_P2;Temp;Humidity;BMP_temperature;BMP_pressure;BME280_temperature;BME280_humidity;BME280_pressure;Samples;Min_cycle;Max_cycle;Signal;HPM_P1;HPM_P2
2020/12/02 04:12:20;;;;;;;1.95;1.15;;;-5.50;98.20;;;;;;5050754;28;20119;-68
2020/12/02 04:14:46;;;;;;;2.22;1.00;;;-5.50;98.20;;;;;;5050954;28;20037;-68
2020/12/02 04:17:11;;;;;;;0.90;0.90;;;-5.50;97.60;;;;;;5051322;28;20100;-68
2020/12/02 04:19:37;;;;;;;0.95;0.90;;;-5.50;97.90;;;;;;5054574;28;20044;-68
2020/12/02 04:22:03;;;;;;;1.00;0.90;;;-5.50;98.00;;;;;;5053910;28;20123;-68
2020/12/02 04:24:28;;;;;;;3.97;1.10;;;-5.50;98.00;;;;;;5054726;28;20498;-68
2020/12/02 04:26:54;;;;;;;4.65;0.90;;;-5.50;96.70;;;;;;5054514;28;20025;-68
2020/12/02 04:29:20;;;;;;;1.80;0.93;;;-5.60;96.30;;;;;;5054872;28;20020;-68
2020/12/02 04:31:45;;;;;;;1.10;1.00;;;-5.70;96.50;;;;;;5055000;28;20109;-67
2020/12/02 04:34:11;;;;;;;3.90;1.20;;;-5.70;96.20;;;;;;5054485;28;20090;-67
2020/12/02 04:36:37;;;;;;;1.50;0.90;;;-5.80;96.10;;;;;;5054710;28;20541;-67
2020/12/02 04:39:04;;;;;;;2.63;1.10;;;-5.90;96.60;;;;;;5054714;28;20056;-67
2020/12/02 04:41:31;;;;;;;3.80;1.10;;;-5.90;96.80;;;;;;5054641;28;20374;-68
2020/12/02 04:43:57;;;;;;;1.63;1.27;;;-5.80;96.80;;;;;;5054221;28;20025;-68
2020/12/02 04:46:31;;;;;;;3.03;1.45;;;-5.80;96.80;;;;;;5054511;28;20029;-67
2020/12/02 04:49:12;;;;;;;1.25;1.10;;;-5.90;96.80;;;;;;5053967;28;20032;-67
2020/12/02 04:51:37;;;;;;;3.25;1.20;;;-6.00;97.00;;;;;;5054223;28;20172;-67
2020/12/02 04:54:05;;;;;;;2.13;1.25;;;-5.90;97.00;;;;;;5053987;28;20468;-67
2020/12/02 04:56:31;;;;;;;1.50;1.20;;;-5.90;96.60;;;;;;5054147;28;20027;-67
2020/12/02 04:58:57;;;;;;;6.03;1.30;;;-5.90;97.30;;;;;;5053954;28;20057;-67
2020/12/02 05:01:31;;;;;;;1.52;1.20;;;-6.00;97.80;;;;;;5054082;28;20389;-67
2020/12/02 05:03:57;;;;;;;3.65;1.20;;;-5.90;97.50;;;;;;5054020;28;20485;-68
2020/12/02 05:06:30;;;;;;;4.75;1.20;;;-5.90;97.50;;;;;;5052702;28;20040;-68
2020/12/02 05:09:25;;;;;;;2.08;1.40;;;-5.80;97.50;;;;;;5054005;28;20021;-67
2020/12/02 05:12:04;;;;;;;4.70;1.42;;;-5.80;97.50;;;;;;5053582;28;20032;-67
2020/12/02 05:14:36;;;;;;;1.20;1.10;;;-5.80;96.20;;;;;;5053796;28;20410;-67
2020/12/02 05:17:23;;;;;;;3.03;1.23;;;-5.80;97.20;;;;;;5054136;28;20417;-67
2020/12/02 05:20:12;;;;;;;3.40;1.50;;;-5.80;98.00;;;;;;5053573;28;20175;-68
2020/12/02 05:22:46;;;;;;;6.25;1.83;;;-5.80;97.60;;;;;;5042309;28;20534;-68
2020/12/02 05:25:33;;;;;;;1.90;1.20;;;-5.80;98.10;;;;;;5053482;28;20021;-68
2020/12/02 05:28:23;;;;;;;3.38;1.27;;;-5.80;97.20;;;;;;5053720;28;20033;-67
2020/12/02 05:30:48;;;;;;;1.50;1.40;;;-5.80;97.00;;;;;;5052655;28;20017;-68
2020/12/02 05:33:14;;;;;;;2.22;1.20;;;-5.80;97.90;;;;;;5053683;28;20370;-72
2020/12/02 05:35:43;;;;;;;2.17;1.25;;;-5.80;98.90;;;;;;5053158;28;20032;-67
2020/12/02 05:38:10;;;;;;;8.90;2.58;;;-5.80;99.30;;;;;;5053460;28;20041;-69
2020/12/02 05:40:39;;;;;;;3.45;1.52;;;-5.80;98.50;;;;;;5053120;28;20055;-71
2020/12/02 05:43:20;;;;;;;4.88;2.17;;;-5.50;99.90;;;;;;5053239;28;20025;-75
2020/12/02 05:45:50;;;;;;;2.83;1.50;;;-4.70;99.90;;;;;;5053085;28;20024;-75
2020/12/02 05:48:23;;;;;;;12.32;4.57;;;-4.80;99.90;;;;;;5053574;28;20108;-70
2020/12/02 05:50:52;;;;;;;2.85;1.75;;;-5.10;99.90;;;;;;5053264;28;20086;-70
2020/12/02 05:53:39;;;;;;;4.40;1.50;;;-5.40;99.50;;;;;;5049836;28;20029;-69
2020/12/02 05:56:08;;;;;;;3.53;1.70;;;-5.50;99.70;;;;;;5052946;28;20484;-69
2020/12/02 05:58:34;;;;;;;3.75;1.67;;;-5.60;99.40;;;;;;5053039;28;20071;-70
2020/12/02 06:01:00;;;;;;;6.35;2.90;;;-5.60;98.60;;;;;;5051333;28;20029;-69
2020/12/02 06:03:31;;;;;;;5.00;3.03;;;-5.60;99.00;;;;;;5052590;28;20017;-68
2020/12/02 06:06:06;;;;;;;6.95;3.35;;;-5.60;99.70;;;;;;5052587;28;20500;-68
2020/12/02 06:08:38;;;;;;;6.82;3.28;;;-5.60;99.00;;;;;;5051413;28;20032;-69
2020/12/02 06:11:16;;;;;;;7.05;3.05;;;-5.50;99.60;;;;;;5049179;28;20508;-68
2020/12/02 06:13:43;;;;;;;7.55;4.43;;;-5.50;99.40;;;;;;5050170;28;20036;-68
2020/12/02 06:16:33;;;;;;;17.50;5.75;;;-5.50;99.20;;;;;;5052264;28;20029;-68
2020/12/02 06:19:21;;;;;;;10.63;5.07;;;-5.40;99.10;;;;;;5051747;28;20417;-68
2020/12/02 06:21:58;;;;;;;8.85;4.10;;;-5.50;98.80;;;;;;5050623;28;20041;-68
2020/12/02 06:24:46;;;;;;;14.98;5.85;;;-5.50;98.90;;;;;;5052418;28;20087;-68
2020/12/02 06:27:15;;;;;;;9.30;5.88;;;-5.40;98.90;;;;;;5053072;28;20051;-70
2020/12/02 06:29:46;;;;;;;6.78;4.47;;;-5.40;98.90;;;;;;5052757;28;20025;-69
2020/12/02 06:32:17;;;;;;;10.90;5.15;;;-5.00;99.90;;;;;;5052769;28;20575;-69
2020/12/02 06:34:43;;;;;;;9.73;5.57;;;-4.90;99.90;;;;;;5052528;28;20075;-69
2020/12/02 06:37:21;;;;;;;10.68;5.13;;;-4.90;99.90;;;;;;5051524;28;20041;-70
2020/12/02 06:39:55;;;;;;;10.15;4.85;;;-5.00;99.90;;;;;;5052606;28;20116;-70
2020/12/02 06:42:35;;;;;;;8.45;4.00;;;-5.00;99.90;;;;;;5051757;28;20075;-70
2020/12/02 06:45:24;;;;;;;3.85;2.20;;;-5.00;99.90;;;;;;5052670;28;20025;-69
2020/12/02 06:47:49;;;;;;;3.90;1.42;;;-5.00;99.90;;;;;;5052426;28;20025;-69
2020/12/02 06:50:20;;;;;;;2.47;1.50;;;-5.00;99.90;;;;;;5052367;28;20377;-69
2020/12/02 06:52:46;;;;;;;4.18;1.40;;;-5.00;99.90;;;;;;5052383;28;20017;-69
2020/12/02 06:55:14;;;;;;;4.13;1.55;;;-5.00;99.90;;;;;;5052272;28;20025;-69
2020/12/02 06:57:40;;;;;;;2.67;1.27;;;-5.00;99.90;;;;;;5052414;28;20025;-69
2020/12/02 07:00:15;;;;;;;3.40;1.40;;;-4.90;99.90;;;;;;5052048;28;20021;-69
2020/12/02 07:02:56;;;;;;;5.82;1.63;;;-4.90;99.90;;;;;;5052577;28;20029;-69
2020/12/02 07:05:35;;;;;;;5.32;1.50;;;-4.80;99.90;;;;;;5051012;28;20023;-69
2020/12/02 07:08:25;;;;;;;3.58;1.20;;;-4.80;99.90;;;;;;5052177;28;20048;-69
2020/12/02 07:11:06;;;;;;;1.38;1.00;;;-4.70;99.90;;;;;;5051901;28;20017;-69
2020/12/02 07:13:37;;;;;;;2.45;1.13;;;-3.90;99.90;;;;;;5052178;28;20029;-68
2020/12/02 07:16:29;;;;;;;3.38;1.17;;;-3.20;99.90;;;;;;5051891;28;20115;-73
2020/12/02 07:19:04;;;;;;;1.95;1.10;;;-3.50;99.90;;;;;;5050909;28;20029;-75
2020/12/02 07:21:53;;;;;;;2.00;1.02;;;-3.70;99.90;;;;;;5051531;28;20119;-68
2020/12/02 07:24:27;;;;;;;6.40;1.30;;;-3.90;99.90;;;;;;5050176;28;20622;-70
2020/12/02 07:26:53;;;;;;;1.30;1.20;;;-4.00;99.90;;;;;;5049213;28;20024;-74
2020/12/02 07:29:23;;;;;;;1.90;1.05;;;-4.00;99.90;;;;;;5051324;28;20028;-72
2020/12/02 07:32:11;;;;;;;1.88;1.08;;;-4.00;99.90;;;;;;5048953;28;20492;-71
2020/12/02 07:34:37;;;;;;;1.55;1.00;;;-4.00;99.90;;;;;;5047729;28;20029;-77
2020/12/02 07:37:15;;;;;;;2.03;1.10;;;-4.00;99.90;;;;;;5051448;28;20587;-73
2020/12/02 07:39:48;;;;;;;2.78;1.25;;;-4.00;99.90;;;;;;5051356;28;20021;-68
2020/12/02 07:42:29;;;;;;;2.72;1.10;;;-3.90;99.90;;;;;;5051556;28;20036;-68
2020/12/02 07:45:14;;;;;;;1.27;1.05;;;-3.90;99.90;;;;;;5051550;28;20095;-68
2020/12/02 07:47:52;;;;;;;2.60;1.10;;;-3.90;99.90;;;;;;5051812;28;20392;-69
2020/12/02 07:50:39;;;;;;;1.85;1.23;;;-3.90;99.90;;;;;;5051538;28;20029;-69
2020/12/02 07:53:31;;;;;;;3.15;1.10;;;-3.80;99.90;;;;;;5053403;28;20481;-68
2020/12/02 07:55:59;;;;;;;1.63;1.13;;;-3.80;99.90;;;;;;5055744;28;20112;-72
2020/12/02 07:58:37;;;;;;;2.28;1.13;;;-3.80;99.90;;;;;;5055084;28;20519;-69
2020/12/02 08:01:08;;;;;;;3.90;1.35;;;-3.80;99.90;;;;;;5052544;28;20041;-70
2020/12/02 08:03:38;;;;;;;5.13;1.10;;;-3.70;99.90;;;;;;5055572;28;20108;-70
2020/12/02 08:06:10;;;;;;;3.38;1.02;;;-3.70;99.90;;;;;;5055383;28;20017;-70
2020/12/02 08:08:35;;;;;;;1.48;1.10;;;-3.60;99.90;;;;;;5054033;28;20120;-71
2020/12/02 08:11:07;;;;;;;1.05;1.00;;;-3.60;99.90;;;;;;5054740;28;20124;-71
2020/12/02 08:13:35;;;;;;;4.03;1.02;;;-3.60;99.90;;;;;;5055203;28;20035;-71
2020/12/02 08:16:02;;;;;;;3.47;1.08;;;-3.50;99.90;;;;;;5048522;28;20083;-71
2020/12/02 08:18:31;;;;;;;1.25;1.00;;;-3.50;99.90;;;;;;5055640;28;20079;-70
2020/12/02 08:21:14;;;;;;;1.20;1.10;;;-3.50;99.90;;;;;;5054964;28;20389;-69
2020/12/02 08:23:51;;;;;;;2.30;1.00;;;-3.50;99.90;;;;;;5055537;28;20021;-70
2020/12/02 08:26:23;;;;;;;2.45;1.02;;;-3.50;99.90;;;;;;5054828;28;20452;-69
2020/12/02 08:28:51;;;;;;;1.27;1.10;;;-3.50;99.90;;;;;;5055308;28;20100;-69
2020/12/02 08:31:26;;;;;;;6.63;1.30;;;-3.50;99.90;;;;;;5055037;28;20107;-69
2020/12/02 08:34:14;;;;;;;6.80;1.15;;;-3.40;99.90;;;;;;5053079;28;20056;-74
2020/12/02 08:36:44;;;;;;;2.35;1.20;;;-1.60;99.90;;;;;;5054943;28;20021;-79
2020/12/02 08:39:10;;;;;;;2.25;1.40;;;-1.00;99.90;;;;;;5054835;28;20371;-74
2020/12/02 08:41:46;;;;;;;4.50;1.35;;;-1.40;99.90;;;;;;5055039;28;20033;-73
2020/12/02 08:44:16;;;;;;;4.53;1.30;;;-1.80;99.90;;;;;;5055116;28;20026;-74
2020/12/02 08:46:54;;;;;;;0.90;0.90;;;-2.10;99.90;;;;;;5054840;28;20025;-74
2020/12/02 08:49:25;;;;;;;1.20;1.10;;;-2.30;99.90;;;;;;5054824;28;20035;-75
2020/12/02 08:51:51;;;;;;;2.63;1.10;;;-2.40;99.90;;;;;;5054604;28;20107;-72
2020/12/02 08:54:18;;;;;;;3.67;1.35;;;-2.60;99.90;;;;;;5054693;28;20458;-73
2020/12/02 08:56:44;;;;;;;8.57;1.25;;;-2.70;99.90;;;;;;5054668;28;20047;-74
2020/12/02 08:59:12;;;;;;;2.13;1.23;;;-2.80;99.90;;;;;;5054272;28;20107;-74
2020/12/02 09:01:39;;;;;;;1.58;1.48;;;-2.80;99.90;;;;;;5054206;28;20454;-73
2020/12/02 09:04:05;;;;;;;2.15;1.40;;;-2.90;99.90;;;;;;5052755;28;20021;-73
2020/12/02 09:06:31;;;;;;;2.17;1.10;;;-2.90;99.90;;;;;;5053986;28;20079;-73
2020/12/02 09:08:57;;;;;;;2.38;1.42;;;-2.90;99.90;;;;;;5053964;28;20025;-73
2020/12/02 09:11:32;;;;;;;2.60;1.42;;;-3.00;99.90;;;;;;5053605;28;20044;-73
2020/12/02 09:13:59;;;;;;;2.88;1.20;;;-3.00;99.90;;;;;;5052448;28;20075;-73
2020/12/02 09:16:36;;;;;;;1.88;1.33;;;-2.90;99.90;;;;;;5053743;28;20021;-73
2020/12/02 09:19:05;;;;;;;3.60;1.42;;;-2.90;99.90;;;;;;5049763;28;20055;-73
2020/12/02 09:21:31;;;;;;;3.15;1.65;;;-2.90;99.90;;;;;;5053975;28;20040;-73
2020/12/02 09:23:58;;;;;;;3.50;1.70;;;-2.80;99.90;;;;;;5054022;28;20021;-80
2020/12/02 09:26:27;;;;;;;10.85;1.70;;;-2.70;99.90;;;;;;5054055;28;20025;-75
2020/12/02 09:28:53;;;;;;;3.75;1.02;;;-2.60;99.90;;;;;;5054271;28;20021;-84
2020/12/02 09:31:21;;;;;;;3.70;1.83;;;-2.60;99.90;;;;;;5053865;28;20032;-86
2020/12/02 09:33:48;;;;;;;3.38;1.70;;;-2.50;99.90;;;;;;5053944;28;20025;-86
2020/12/02 09:36:14;;;;;;;2.45;1.48;;;-2.40;99.90;;;;;;5053747;28;20382;-86
2020/12/02 09:38:41;;;;;;;5.32;1.60;;;-2.30;99.90;;;;;;5053911;28;20084;-85
2020/12/02 09:41:37;;;;;;;2.97;1.60;;;-2.30;99.90;;;;;;5053636;28;20047;-86
2020/12/02 09:44:27;;;;;;;2.78;1.77;;;-2.20;99.90;;;;;;5053674;28;20017;-86
2020/12/02 09:47:06;;;;;;;5.97;1.70;;;-2.20;99.90;;;;;;5053907;28;20486;-85
2020/12/02 09:49:32;;;;;;;5.60;1.92;;;-2.10;99.90;;;;;;5053659;28;20078;-85
2020/12/02 09:52:37;;;;;;;3.15;1.90;;;-2.10;99.90;;;;;;5053416;28;20029;-84
2020/12/02 09:55:09;;;;;;;2.15;1.42;;;-2.00;99.90;;;;;;5051546;28;20060;-84
2020/12/02 09:57:35;;;;;;;4.47;2.05;;;-2.00;99.90;;;;;;5053372;28;20021;-84
2020/12/02 10:00:01;;;;;;;7.55;2.35;;;-1.90;99.90;;;;;;5053474;28;20086;-85
2020/12/02 10:02:36;;;;;;;5.55;1.77;;;-1.80;99.90;;;;;;5053795;28;20064;-83
2020/12/02 10:06:04;;;;;;;3.20;1.45;;;-1.80;99.90;;;;;;5053285;28;20063;-83
2020/12/02 10:09:03;;;;;;;6.70;1.55;;;-1.70;99.90;;;;;;5034937;28;20104;-83
2020/12/02 10:11:59;;;;;;;8.30;1.60;;;-1.70;99.90;;;;;;5030800;28;20064;-82
2020/12/02 10:14:51;;;;;;;4.28;1.40;;;-1.70;99.90;;;;;;5051025;28;20041;-82
2020/12/02 10:17:36;;;;;;;4.70;1.83;;;-1.60;99.90;;;;;;5053167;28;20029;-82
2020/12/02 10:20:35;;;;;;;3.58;1.60;;;-1.60;99.90;;;;;;5052942;28;20029;-82
2020/12/02 10:23:20;;;;;;;5.35;1.75;;;-1.50;99.90;;;;;;5053264;28;20112;-82
2020/12/02 10:26:17;;;;;;;2.15;1.40;;;-1.50;99.90;;;;;;5053157;28;20029;-83
2020/12/02 10:29:01;;;;;;;3.17;1.25;;;-1.40;99.90;;;;;;5052848;28;20118;-82
2020/12/02 10:31:35;;;;;;;2.90;1.38;;;-1.30;99.90;;;;;;5053005;28;20028;-82
2020/12/02 10:34:21;;;;;;;5.05;1.80;;;-1.30;99.90;;;;;;5052782;28;20025;-83
2020/12/02 10:37:29;;;;;;;1.50;1.17;;;-1.20;99.90;;;;;;5052737;28;20021;-82
2020/12/02 10:39:55;;;;;;;9.00;1.40;;;-1.20;99.90;;;;;;5052343;28;20029;-84
2020/12/02 10:42:38;;;;;;;3.97;1.50;;;-1.10;99.90;;;;;;5052751;28;20032;-82
2020/12/02 10:45:06;;;;;;;8.80;1.20;;;-1.00;99.90;;;;;;5052408;28;20055;-82
2020/12/02 10:48:00;;;;;;;4.70;1.20;;;-0.90;99.90;;;;;;5052664;28;20036;-81
2020/12/02 10:50:29;;;;;;;4.10;0.93;;;-0.80;99.90;;;;;;5052529;28;20029;-81
2020/12/02 10:52:56;;;;;;;2.45;1.15;;;-0.70;99.90;;;;;;5052805;28;20036;-81
2020/12/02 10:55:26;;;;;;;2.83;1.20;;;-0.60;99.90;;;;;;5052735;28;20021;-81
2020/12/02 10:58:02;;;;;;;2.78;0.85;;;-0.50;99.90;;;;;;5052422;28;20021;-81
2020/12/02 11:00:29;;;;;;;4.05;0.93;;;-0.40;99.90;;;;;;5052322;28;20055;-82
2020/12/02 11:03:16;;;;;;;3.22;0.88;;;-0.30;99.90;;;;;;5052306;28;20021;-80
2020/12/02 11:06:09;;;;;;;5.20;1.15;;;-0.30;99.90;;;;;;5052323;28;20488;-81
2020/12/02 11:08:40;;;;;;;6.32;1.10;;;-0.20;99.90;;;;;;5041929;28;20091;-76
2020/12/02 11:11:15;;;;;;;4.05;1.25;;;-0.10;99.90;;;;;;5051752;28;20025;-75
2020/12/02 11:14:01;;;;;;;3.22;1.20;;;-0.10;99.90;;;;;;5052084;28;20480;-76
2020/12/02 11:16:45;;;;;;;2.75;0.90;;;0.00;99.90;;;;;;5052153;28;20021;-76
2020/12/02 11:19:20;;;;;;;2.85;0.90;;;0.00;99.90;;;;;;5051966;28;20029;-75
2020/12/02 11:22:07;;;;;;;3.90;1.00;;;0.00;99.90;;;;;;5051981;28;20037;-75
2020/12/02 11:24:51;;;;;;;1.65;1.10;;;0.10;99.90;;;;;;5052042;28;20021;-75
2020/12/02 11:27:16;;;;;;;4.90;1.23;;;0.10;99.90;;;;;;5051441;28;20036;-74
2020/12/02 11:29:42;;;;;;;5.13;1.20;;;0.20;99.90;;;;;;5051896;28;20048;-74
2020/12/02 11:32:27;;;;;;;5.53;0.98;;;0.20;99.90;;;;;;5051793;28;20087;-76
2020/12/02 11:35:20;;;;;;;5.10;1.05;;;0.30;99.90;;;;;;5050726;28;20021;-75
2020/12/02 11:37:56;;;;;;;4.60;1.15;;;0.30;99.90;;;;;;5052029;28;20033;-75
2020/12/02 11:40:34;;;;;;;4.60;1.00;;;0.40;99.90;;;;;;5052046;28;20032;-82
2020/12/02 11:43:22;;;;;;;4.03;1.05;;;0.40;99.90;;;;;;5051739;28;20043;-83
2020/12/02 11:45:51;;;;;;;3.28;1.13;;;0.40;99.90;;;;;;5051899;28;20112;-82
2020/12/02 11:48:22;;;;;;;4.97;0.90;;;0.50;99.90;;;;;;5051771;28;20029;-82
2020/12/02 11:51:03;;;;;;;5.30;1.45;;;0.50;99.90;;;;;;5051942;28;20033;-72
2020/12/02 11:53:41;;;;;;;1.80;1.10;;;0.80;99.90;;;;;;5050342;28;20059;-78
2020/12/02 11:56:22;;;;;;;3.38;0.95;;;5.30;99.90;;;;;;5051475;28;20036;-85
2020/12/02 11:59:01;;;;;;;2.92;1.00;;;7.20;99.90;;;;;;5051836;28;20029;-86
2020/12/02 12:01:53;;;;;;;5.07;1.00;;;6.30;99.90;;;;;;5052935;28;20045;-85
2020/12/02 12:04:44;;;;;;;3.63;0.93;;;5.20;99.90;;;;;;5051649;28;20040;-80
2020/12/02 12:07:32;;;;;;;1.80;0.80;;;4.40;99.90;;;;;;5051043;28;20453;-81
2020/12/02 12:10:13;;;;;;;2.20;1.10;;;3.60;99.90;;;;;;5031740;28;20018;-82
2020/12/02 12:13:12;;;;;;;3.38;1.10;;;3.00;99.90;;;;;;5031434;28;20057;-82
2020/12/02 12:15:41;;;;;;;0.85;0.70;;;2.60;99.90;;;;;;5038539;28;20362;-80
2020/12/02 12:18:35;;;;;;;4.82;0.95;;;2.40;99.90;;;;;;5050947;28;20021;-84
2020/12/02 12:21:08;;;;;;;6.32;1.38;;;2.20;99.90;;;;;;5050741;28;20033;-85
2020/12/02 12:23:42;;;;;;;6.93;1.52;;;2.20;99.90;;;;;;5050754;28;20025;-85
2020/12/02 12:26:11;;;;;;;2.78;1.10;;;2.10;99.90;;;;;;5050818;28;20394;-83
2020/12/02 12:28:37;;;;;;;3.30;1.20;;;2.00;99.90;;;;;;5051274;28;20040;-83
2020/12/02 12:31:12;;;;;;;4.05;1.08;;;1.90;99.90;;;;;;5050924;28;20029;-89
2020/12/02 12:33:45;;;;;;;2.33;0.90;;;1.90;99.90;;;;;;5049783;28;20425;-79
2020/12/02 12:36:20;;;;;;;7.75;1.13;;;1.90;99.90;;;;;;5050096;28;20101;-77
2020/12/02 12:39:17;;;;;;;1.88;1.00;;;1.80;99.90;;;;;;5051143;28;20401;-76
2020/12/02 12:41:45;;;;;;;3.83;1.25;;;1.80;99.90;;;;;;5052951;28;20033;-77
2020/12/02 12:44:32;;;;;;;4.38;1.13;;;1.80;99.90;;;;;;5054317;28;20041;-76
2020/12/02 12:47:16;;;;;;;3.50;1.20;;;1.70;99.90;;;;;;5052682;28;20044;-78
2020/12/02 12:49:42;;;;;;;2.70;0.90;;;2.40;99.90;;;;;;5055026;28;20021;-78
2020/12/02 12:52:14;;;;;;;2.83;1.00;;;2.30;99.90;;;;;;5054856;28;20419;-78
2020/12/02 12:54:41;;;;;;;4.53;1.10;;;2.10;99.90;;;;;;5054816;28;20031;-81
2020/12/02 12:57:19;;;;;;;2.97;0.85;;;2.00;99.90;;;;;;5054563;28;20025;-80
2020/12/02 12:59:44;;;;;;;1.85;1.00;;;2.10;99.90;;;;;;5054202;28;20431;-79
2020/12/02 13:02:29;;;;;;;5.25;1.33;;;2.40;99.90;;;;;;5054472;28;20082;-77
2020/12/02 13:04:55;;;;;;;4.65;1.15;;;2.50;99.90;;;;;;5054691;28;20082;-80
2020/12/02 13:07:25;;;;;;;4.03;1.02;;;2.90;99.90;;;;;;5054730;28;20447;-75
2020/12/02 13:09:56;;;;;;;2.72;0.90;;;3.40;99.90;;;;;;5054762;28;20028;-77
2020/12/02 13:12:37;;;;;;;3.05;0.93;;;3.40;99.90;;;;;;5054000;28;20041;-77
2020/12/02 13:15:23;;;;;;;2.50;1.00;;;3.60;99.90;;;;;;5054497;28;20029;-77
2020/12/02 13:17:58;;;;;;;4.10;1.05;;;3.20;99.90;;;;;;5054390;28;20021;-76
2020/12/02 13:20:48;;;;;;;6.35;1.20;;;3.00;99.90;;;;;;5057389;28;20033;-70
2020/12/02 13:23:15;;;;;;;;;;;2.80;99.90;;;;;;5054560;28;20104;-70
2020/12/02 13:26:04;;;;;;;2.33;1.08;;;2.60;99.90;;;;;;5054222;28;19935;-70
2020/12/02 13:28:43;;;;;;;1.95;0.80;;;2.40;99.90;;;;;;5053903;28;20033;-68
2020/12/02 13:31:12;;;;;;;4.25;1.00;;;2.40;99.90;;;;;;5053783;28;20394;-68
2020/12/02 13:33:39;;;;;;;6.40;1.35;;;2.30;99.90;;;;;;5053868;28;20396;-69
2020/12/02 13:36:19;;;;;;;3.63;1.17;;;2.30;99.90;;;;;;5053962;28;20113;-68
2020/12/02 13:38:45;;;;;;;5.00;0.93;;;2.20;99.90;;;;;;5034335;28;20075;-69
2020/12/02 13:41:22;;;;;;;6.72;1.23;;;2.20;99.90;;;;;;5048170;28;20041;-69
2020/12/02 13:43:53;;;;;;;9.82;1.42;;;2.20;99.90;;;;;;5053171;28;20025;-68
2020/12/02 13:46:20;;;;;;;3.47;1.20;;;2.20;99.90;;;;;;5052978;28;20029;-68
2020/12/02 13:48:50;;;;;;;9.80;1.20;;;2.20;99.90;;;;;;5053239;28;20028;-68
2020/12/02 13:52:00;;;;;;;9.70;1.05;;;2.10;99.90;;;;;;5050077;28;20389;-68
2020/12/02 13:54:50;;;;;;;5.47;1.17;;;2.20;99.90;;;;;;5009960;28;20172;-68
2020/12/02 13:57:35;;;;;;;5.55;1.13;;;2.20;99.90;;;;;;5038823;28;20037;-69
2020/12/02 14:00:12;;;;;;;3.22;1.05;;;2.20;99.90;;;;;;5052918;28;20021;-68
2020/12/02 14:02:44;;;;;;;6.60;1.05;;;2.20;99.90;;;;;;5050271;28;20017;-69
2020/12/02 14:05:12;;;;;;;4.72;1.10;;;2.20;99.90;;;;;;5052661;28;20029;-69
2020/12/02 14:07:41;;;;;;;5.13;1.20;;;2.20;99.90;;;;;;5052807;28;20094;-69
2020/12/02 14:10:10;;;;;;;1.58;0.90;;;2.20;99.90;;;;;;5052500;28;20492;-69
2020/12/02 14:12:38;;;;;;;4.20;1.00;;;2.20;99.90;;;;;;5052438;28;20041;-68
2020/12/02 14:15:05;;;;;;;2.38;0.90;;;2.10;99.90;;;;;;5052555;28;20490;-69
2020/12/02 14:17:31;;;;;;;8.45;1.60;;;2.20;99.90;;;;;;5052520;28;20017;-69
2020/12/02 14:19:57;;;;;;;4.68;1.17;;;2.20;99.90;;;;;;5053028;28;20439;-68
2020/12/02 14:22:30;;;;;;;3.92;1.00;;;2.20;99.90;;;;;;5053075;28;20029;-69
2020/12/02 14:25:03;;;;;;;2.00;1.30;;;2.20;99.90;;;;;;5052259;28;20013;-68
2020/12/02 14:27:32;;;;;;;4.68;0.80;;;2.20;99.90;;;;;;5050909;28;20107;-68
2020/12/02 14:29:59;;;;;;;4.75;1.13;;;2.20;99.90;;;;;;5052458;28;20485;-68
2020/12/02 14:32:27;;;;;;;2.95;1.10;;;2.20;99.90;;;;;;5052319;28;20519;-68
2020/12/02 14:34:53;;;;;;;1.63;1.15;;;2.20;99.90;;;;;;5052564;28;20052;-70
2020/12/02 14:37:20;;;;;;;3.40;0.82;;;2.20;99.90;;;;;;5052132;28;20035;-70
2020/12/02 14:39:46;;;;;;;4.13;1.35;;;2.10;99.90;;;;;;5052418;28;20020;-70
2020/12/02 14:42:13;;;;;;;5.00;1.00;;;2.10;99.90;;;;;;5051981;28;20466;-70
2020/12/02 14:44:41;;;;;;;4.72;1.10;;;2.10;99.90;;;;;;5052366;28;20021;-70
2020/12/02 14:47:09;;;;;;;1.75;0.80;;;2.10;99.90;;;;;;5052383;28;20506;-70
2020/12/02 14:49:35;;;;;;;4.53;1.10;;;2.10;99.90;;;;;;5052419;28;20082;-70
2020/12/02 14:52:00;;;;;;;2.97;1.00;;;2.20;99.90;;;;;;5051915;28;20017;-70
2020/12/02 14:54:26;;;;;;;5.05;1.00;;;2.20;99.90;;;;;;5051960;28;20039;-71
2020/12/02 14:57:20;;;;;;;2.08;0.70;;;2.20;99.90;;;;;;5052127;28;20029;-70
2020/12/02 14:59:51;;;;;;;2.63;1.30;;;2.20;99.90;;;;;;5052292;28;20045;-71
2020/12/02 15:02:17;;;;;;;4.78;1.00;;;2.20;99.90;;;;;;5051170;28;20037;-70
2020/12/02 15:04:48;;;;;;;3.10;0.90;;;2.10;99.90;;;;;;5052330;28;20404;-69
2020/12/02 15:07:43;;;;;;;;;;;2.10;99.90;;;;;;5052525;28;20025;-68
2020/12/02 15:10:19;;;;;;;3.05;0.80;;;2.20;99.90;;;;;;5052200;28;19912;-70
2020/12/02 15:12:44;;;;;;;4.00;1.38;;;2.10;99.90;;;;;;5051952;28;20056;-70
2020/12/02 15:15:13;;;;;;;5.25;0.90;;;2.10;99.90;;;;;;5052351;28;20039;-70
2020/12/02 15:17:44;;;;;;;5.45;0.98;;;2.20;99.90;;;;;;5052131;28;20029;-71
2020/12/02 15:20:21;;;;;;;6.68;1.00;;;2.20;99.90;;;;;;5051939;28;20029;-71
2020/12/02 15:22:52;;;;;;;5.05;0.93;;;2.20;99.90;;;;;;5051894;28;20132;-71
2020/12/02 15:25:18;;;;;;;3.08;0.90;;;2.20;99.90;;;;;;5051680;28;20468;-71
2020/12/02 15:27:47;;;;;;;2.90;0.80;;;2.20;99.90;;;;;;5051879;28;20029;-71
2020/12/02 15:30:35;;;;;;;3.08;0.90;;;2.20;99.90;;;;;;5051621;28;20539;-71
2020/12/02 15:33:15;;;;;;;5.32;0.90;;;2.20;99.90;;;;;;5050653;28;20028;-71
2020/12/02 15:35:56;;;;;;;4.75;1.10;;;2.30;99.90;;;;;;5051035;28;20112;-70
2020/12/02 15:38:31;;;;;;;2.92;0.95;;;2.30;99.90;;;;;;5051394;28;20036;-70
2020/12/02 15:41:25;;;;;;;3.88;0.90;;;2.30;99.90;;;;;;5051637;28;20114;-70
2020/12/02 15:44:06;;;;;;;3.75;1.00;;;2.30;99.90;;;;;;5051425;28;20523;-70
2020/12/02 15:46:55;;;;;;;1.77;0.93;;;2.20;99.90;;;;;;5051512;28;20099;-70
2020/12/02 15:49:30;;;;;;;4.72;1.00;;;2.20;99.90;;;;;;5049771;28;20071;-70
2020/12/02 15:52:25;;;;;;;4.28;1.10;;;2.20;99.90;;;;;;5043547;28;20151;-71
2020/12/02 15:54:57;;;;;;;1.92;0.90;;;2.30;99.90;;;;;;5049517;28;20108;-70
2020/12/02 15:57:36;;;;;;;1.77;0.77;;;2.30;99.90;;;;;;5048448;28;20143;-70
2020/12/02 16:00:23;;;;;;;5.72;1.10;;;2.30;99.90;;;;;;5051183;28;20021;-70
2020/12/02 16:02:50;;;;;;;6.03;0.95;;;2.30;99.90;;;;;;5049226;28;20028;-70
2020/12/02 16:05:23;;;;;;;6.55;1.60;;;2.30;99.90;;;;;;5051018;28;20017;-71
2020/12/02 16:08:03;;;;;;;10.10;3.70;;;2.30;99.90;;;;;;5051338;28;20163;-70
2020/12/02 16:10:29;;;;;;;7.38;2.10;;;2.30;99.90;;;;;;5049195;28;20021;-70
2020/12/02 16:12:56;;;;;;;2.25;1.00;;;2.30;99.90;;;;;;5050813;28;20618;-69
2020/12/02 16:15:24;;;;;;;5.30;1.08;;;2.30;99.90;;;;;;5054755;28;20373;-70
2020/12/02 16:17:50;;;;;;;1.38;0.65;;;2.30;99.90;;;;;;5054911;28;20045;-70
2020/12/02 16:20:22;;;;;;;2.60;0.80;;;2.40;99.90;;;;;;5054734;28;20558;-70
2020/12/02 16:23:09;;;;;;;5.20;1.00;;;2.40;99.90;;;;;;5052716;28;20391;-70
2020/12/02 16:25:36;;;;;;;1.58;0.90;;;2.40;99.90;;;;;;5053674;28;20017;-70
2020/12/02 16:28:02;;;;;;;2.92;0.90;;;2.40;99.90;;;;;;5054842;28;20025;-70
2020/12/02 16:30:28;;;;;;;2.17;0.90;;;2.40;99.90;;;;;;5054796;28;20494;-70
2020/12/02 16:32:56;;;;;;;2.45;0.80;;;2.50;99.90;;;;;;5054658;28;20032;-70
2020/12/02 16:35:23;;;;;;;2.80;0.77;;;2.50;99.90;;;;;;5054709;28;20033;-70
2020/12/02 16:37:58;;;;;;;2.95;0.82;;;2.50;99.90;;;;;;5054653;28;20017;-70
2020/12/02 16:40:25;;;;;;;6.55;1.00;;;2.50;99.90;;;;;;5052676;28;20025;-70
2020/12/02 16:42:56;;;;;;;4.10;1.30;;;2.50;99.90;;;;;;5055079;28;20053;-70
2020/12/02 16:45:26;;;;;;;4.03;1.05;;;2.50;99.90;;;;;;5054718;28;20025;-71
2020/12/02 16:48:02;;;;;;;2.92;0.90;;;2.50;99.90;;;;;;5054914;28;20108;-71
2020/12/02 16:51:05;;;;;;;1.52;0.93;;;2.50;99.90;;;;;;5054779;28;20025;-72
2020/12/02 16:53:43;;;;;;;1.02;0.70;;;2.50;99.90;;;;;;5053361;28;20033;-71
2020/12/02 16:56:23;;;;;;;1.00;0.70;;;2.60;99.90;;;;;;5054938;28;20021;-72
2020/12/02 16:58:51;;;;;;;;;;;2.80;99.90;;;;;;5055142;28;20029;-72
2020/12/02 17:01:21;;;;;;;1.88;0.80;;;2.80;99.90;;;;;;5054382;28;19913;-72
2020/12/02 17:03:49;;;;;;;1.58;0.73;;;2.70;99.90;;;;;;5054556;28;20489;-72
2020/12/02 17:06:16;;;;;;;2.55;0.82;;;2.70;99.90;;;;;;5054771;28;20060;-73
2020/12/02 17:08:41;;;;;;;1.58;0.80;;;2.70;99.90;;;;;;5054882;28;20025;-72
2020/12/02 17:11:14;;;;;;;1.95;0.70;;;2.70;99.90;;;;;;5054602;28;20376;-72
2020/12/02 17:14:04;;;;;;;1.00;0.60;;;2.70;99.90;;;;;;5054616;28;20036;-72
2020/12/02 17:16:39;;;;;;;2.07;0.70;;;2.80;99.90;;;;;;5054355;28;20029;-72
2020/12/02 17:19:23;;;;;;;1.95;1.10;;;2.80;99.90;;;;;;5053476;28;20029;-70
2020/12/02 17:22:10;;;;;;;3.20;0.70;;;2.80;99.90;;;;;;5052971;28;20388;-70
2020/12/02 17:24:42;;;;;;;2.88;0.90;;;2.70;99.90;;;;;;5053841;28;20036;-70
2020/12/02 17:27:13;;;;;;;7.30;1.20;;;2.70;99.90;;;;;;5053941;28;20142;-70
2020/12/02 17:30:02;;;;;;;3.88;1.20;;;2.70;99.90;;;;;;5053992;28;20025;-70
2020/12/02 17:32:41;;;;;;;1.70;0.70;;;2.70;99.90;;;;;;5054142;28;20059;-73
2020/12/02 17:35:32;;;;;;;1.40;0.90;;;2.90;99.90;;;;;;5054068;28;20029;-77
2020/12/02 17:38:35;;;;;;;1.70;0.63;;;2.90;99.90;;;;;;5053926;28;20025;-76
2020/12/02 17:41:07;;;;;;;1.10;0.68;;;2.80;99.90;;;;;;5051294;28;20033;-75
2020/12/02 17:43:57;;;;;;;4.95;1.10;;;2.80;99.90;;;;;;5052336;28;20048;-76
2020/12/02 17:46:41;;;;;;;;;;;2.80;99.90;;;;;;5052031;28;20523;-75